Time;durP1;ratioP1;P1;durP2;ratioP2;P2;SDS_P1;SDS_P2;PMS_P1;PMS_P2;Temp;Humidity;BMP_temperature;BMP_pressure;BME280_temperature;BME280_humidity;BME280_pressure;Samples;Min_cycle;Max_cycle;Signal;HPM_P1;HPM_P2
2023/04/02 00:00:15;;;;;;;0.50;0.50;;;;;;;9.14;100.00;95551.81;5022769;28;101956;-63
2023/04/02 00:02:46;;;;;;;0.70;0.63;;;;;;;9.12;100.00;95558.44;5031500;28;105235;-63
2023/04/02 00:05:51;;;;;;;0.60;0.60;;;;;;;9.12;100.00;95555.78;5030218;28;105282;-63
2023/04/02 00:08:22;;;;;;;0.93;0.50;;;;;;;9.09;100.00;95553.66;5017440;28;101775;-63
2023/04/02 00:10:51;;;;;;;0.73;0.60;;;;;;;9.08;100.00;95558.16;5025587;28;105383;-63
2023/04/02 00:13:25;;;;;;;0.50;0.50;;;;;;;9.07;100.00;95559.22;5030655;28;105022;-63
2023/04/02 00:15:56;;;;;;;0.40;0.40;;;;;;;9.07;100.00;95553.13;5035045;28;101683;-63
2023/04/02 00:18:24;;;;;;;0.37;0.37;;;;;;;9.05;100.00;95560.56;5030468;28;104940;-64
2023/04/02 00:20:56;;;;;;;0.83;0.60;;;;;;;9.05;100.00;95553.38;5017337;28;101842;-63
2023/04/02 00:24:02;;;;;;;0.50;0.50;;;;;;;9.04;100.00;95557.09;5011250;28;103835;-63
2023/04/02 00:26:32;;;;;;;0.73;0.60;;;;;;;9.03;100.00;95562.66;5012242;28;103189;-63
2023/04/02 00:29:02;;;;;;;0.50;0.50;;;;;;;9.01;100.00;95556.81;5011256;28;101804;-63
2023/04/02 00:31:30;;;;;;;0.97;0.70;;;;;;;9.02;100.00;95564.53;5064496;27;105309;-63
2023/04/02 00:34:04;;;;;;;0.50;0.50;;;;;;;8.99;100.00;95567.69;5030481;28;104118;-63
2023/04/02 00:36:33;;;;;;;0.40;0.40;;;;;;;9.01;100.00;95564.78;5068305;27;101932;-63
2023/04/02 00:39:07;;;;;;;0.60;0.60;;;;;;;8.99;100.00;95572.97;5031726;27;102578;-63
2023/04/02 00:41:37;;;;;;;0.60;0.40;;;;;;;8.99;100.00;95567.69;4991137;28;101899;-63
2023/04/02 00:44:13;;;;;;;0.50;0.50;;;;;;;9.01;100.00;95562.13;5024566;28;105057;-63
2023/04/02 00:46:45;;;;;;;1.20;0.70;;;;;;;9.01;100.00;95565.56;4990503;28;105295;-63
2023/04/02 00:49:36;;;;;;;0.60;0.60;;;;;;;9.01;100.00;95565.56;4996235;28;101979;-63
2023/04/02 00:52:07;;;;;;;1.03;0.47;;;;;;;9.02;100.00;95569.81;5030462;28;104941;-63
2023/04/02 00:55:30;;;;;;;0.30;0.30;;;;;;;9.02;100.00;95566.38;5029846;28;105194;-63
2023/04/02 00:57:59;;;;;;;0.77;0.53;;;;;;;9.03;100.00;95562.66;5030676;28;102127;-63
2023/04/02 01:00:32;;;;;;;0.50;0.50;;;;;;;9.00;100.00;95561.31;5020321;28;104936;-63
2023/04/02 01:03:34;;;;;;;1.00;0.50;;;;;;;8.93;100.00;95563.41;5017514;28;102009;-63
2023/04/02 01:06:09;;;;;;;1.07;0.43;;;;;;;8.97;100.00;95572.44;4992744;28;104904;-63
2023/04/02 01:08:59;;;;;;;0.60;0.60;;;;;;;8.96;100.00;95567.41;4990497;28;105479;-63
2023/04/02 01:11:45;;;;;;;2.53;0.60;;;;;;;8.97;100.00;95569.00;4953489;28;102062;-63
2023/04/02 01:18:25;;;;;;;1.07;0.50;;;;;;;8.95;100.00;95568.47;4977452;28;102120;-63
2023/04/02 01:21:32;;;;;;;0.37;0.37;;;;;;;9.00;100.00;95568.47;5000677;28;103129;-63
2023/04/02 01:24:24;;;;;;;0.77;0.47;;;;;;;8.98;100.00;95571.38;4913571;28;104792;-63
2023/04/02 01:26:57;;;;;;;2.40;0.60;;;;;;;8.96;100.00;95568.22;4972281;28;105287;-63
2023/04/02 01:29:28;;;;;;;0.90;0.50;;;;;;;8.97;100.00;95574.28;4955599;28;105049;-63
2023/04/02 01:32:00;;;;;;;0.37;0.37;;;;;;;8.96;100.00;95572.69;4986902;28;105648;-63
2023/04/02 01:38:02;;;;;;;0.90;0.47;;;;;;;8.95;100.00;95581.72;4972509;28;104152;-63
2023/04/02 01:40:39;;;;;;;0.50;0.50;;;;;;;8.94;100.00;95580.13;4981172;28;105404;-63
2023/04/02 01:43:30;;;;;;;0.33;0.33;;;;;;;8.93;100.00;95578.50;5011917;28;102559;-63
2023/04/02 01:45:59;;;;;;;0.30;0.30;;;;;;;8.94;100.00;95585.44;5030015;28;105062;-63
2023/04/02 01:48:31;;;;;;;0.40;0.40;;;;;;;8.90;100.00;95579.06;5029232;28;105107;-63
2023/04/02 01:51:02;;;;;;;0.40;0.40;;;;;;;8.89;100.00;95583.53;5033484;28;101806;-63
2023/04/02 01:53:43;;;;;;;0.50;0.40;;;;;;;8.89;100.00;95578.25;5029158;28;105043;-63
2023/04/02 01:56:10;;;;;;;0.30;0.30;;;;;;;8.89;100.00;95582.75;4973348;28;101828;-63
2023/04/02 01:58:37;;;;;;;0.40;0.40;;;;;;;8.85;100.00;95581.66;5008322;28;105142;-63
2023/04/02 02:01:08;;;;;;;0.70;0.40;;;;;;;8.88;100.00;95591.78;5019766;28;105407;-63
2023/04/02 02:07:01;;;;;;;0.60;0.50;;;;;;;8.82;100.00;95592.78;5029555;28;105492;-63
2023/04/02 02:09:33;;;;;;;1.03;0.80;;;;;;;8.81;100.00;95588.53;5016673;28;104834;-63
2023/04/02 02:12:01;;;;;;;0.60;0.60;;;;;;;8.79;100.00;95598.63;5028632;28;102236;-63
2023/04/02 02:14:33;;;;;;;0.53;0.53;;;;;;;8.82;100.00;95603.38;5026889;28;104788;-63
2023/04/02 02:17:03;;;;;;;0.57;0.57;;;;;;;8.82;100.00;95606.03;5011942;28;101897;-63
2023/04/02 02:19:33;;;;;;;0.87;0.70;;;;;;;8.81;100.00;95601.78;5008836;28;105061;-63
2023/04/02 02:22:09;;;;;;;0.63;0.53;;;;;;;8.81;100.00;95613.22;5008895;28;105060;-63
2023/04/02 02:25:19;;;;;;;0.50;0.47;;;;;;;8.85;100.00;95611.66;5009314;28;101986;-63
2023/04/02 02:27:57;;;;;;;3.40;0.67;;;;;;;8.86;100.00;95609.78;5009540;28;105264;-63
2023/04/02 02:30:30;;;;;;;0.83;0.60;;;;;;;8.86;100.00;95620.38;5014047;28;105202;-63
2023/04/02 02:33:07;;;;;;;0.60;0.60;;;;;;;8.85;100.00;95616.13;5029414;28;101933;-63
2023/04/02 02:35:42;;;;;;;1.03;0.50;;;;;;;8.90;100.00;95613.50;4989311;28;105205;-63
2023/04/02 02:38:31;;;;;;;0.80;0.47;;;;;;;8.91;100.00;95612.44;4993609;28;105310;-63
2023/04/02 02:41:07;;;;;;;0.53;0.50;;;;;;;8.87;100.00;95616.66;5019385;28;105174;-63
2023/04/02 02:44:00;;;;;;;1.33;0.40;;;;;;;8.89;100.00;95614.56;5027038;28;105969;-63
2023/04/02 02:46:30;;;;;;;0.70;0.40;;;;;;;8.84;100.00;95611.91;5029394;28;101763;-63
2023/04/02 02:49:03;;;;;;;1.27;0.50;;;;;;;8.85;100.00;95613.50;5028603;28;105091;-63
2023/04/02 02:51:40;;;;;;;0.63;0.40;;;;;;;8.87;100.00;95616.66;5014392;28;105208;-63
2023/04/02 02:57:51;;;;;;;0.30;0.30;;;;;;;8.82;100.00;95624.59;5029260;28;105315;-63
2023/04/02 03:00:19;;;;;;;0.63;0.50;;;;;;;8.82;100.00;95621.94;5033085;27;104952;-63
2023/04/02 03:06:19;;;;;;;1.43;0.50;;;;;;;8.86;100.00;95636.28;5028331;28;105594;-63
2023/04/02 03:08:53;;;;;;;1.50;0.60;;;;;;;8.85;100.00;95634.69;5028574;28;101823;-63
2023/04/02 03:11:32;;;;;;;0.93;0.50;;;;;;;8.82;100.00;95641.31;5016483;28;105161;-63
2023/04/02 03:14:17;;;;;;;0.33;0.33;;;;;;;8.80;100.00;95642.63;5011132;28;105151;-63
2023/04/02 03:16:49;;;;;;;1.23;0.50;;;;;;;8.82;100.00;95643.16;5013538;28;101832;-63
2023/04/02 03:19:28;;;;;;;0.50;0.50;;;;;;;8.81;100.00;95645.03;5012208;28;104871;-64
2023/04/02 03:22:04;;;;;;;0.50;0.50;;;;;;;8.78;100.00;95647.38;5030583;28;105396;-63
2023/04/02 03:24:42;;;;;;;0.40;0.40;;;;;;;8.76;100.00;95641.53;5035744;28;101923;-63
2023/04/02 03:27:15;;;;;;;1.70;0.50;;;;;;;8.77;100.00;95643.94;4991836;28;105472;-63
2023/04/02 03:29:49;;;;;;;0.73;0.30;;;;;;;8.77;100.00;95643.16;4994019;28;101820;-63
2023/04/02 03:32:21;;;;;;;0.57;0.50;;;;;;;8.80;100.00;95646.06;5032326;28;105415;-63
2023/04/02 03:35:30;;;;;;;0.73;0.43;;;;;;;8.76;100.00;95652.13;5032639;28;102447;-63
2023/04/02 03:38:04;;;;;;;2.33;0.63;;;;;;;8.77;100.00;95656.41;5032053;28;102019;-63
2023/04/02 03:40:37;;;;;;;1.53;0.50;;;;;;;8.80;100.00;95647.91;5023459;28;105530;-63
2023/04/02 03:43:16;;;;;;;0.93;0.40;;;;;;;8.74;100.00;95649.75;5031431;28;105265;-63
2023/04/02 03:45:48;;;;;;;0.97;0.60;;;;;;;8.71;100.00;95644.97;5031696;28;101994;-63
2023/04/02 03:48:24;;;;;;;1.43;0.40;;;;;;;8.68;100.00;95660.56;5034891;28;105121;-63
2023/04/02 03:50:57;;;;;;;0.50;0.50;;;;;;;8.71;100.00;95654.75;5023319;28;101949;-63
2023/04/02 03:53:31;;;;;;;1.00;0.60;;;;;;;8.66;100.00;95652.06;5026375;28;105050;-63
2023/04/02 03:55:59;;;;;;;1.13;0.50;;;;;;;8.71;100.00;95654.75;5027004;28;104895;-63
2023/04/02 03:58:32;;;;;;;0.40;0.40;;;;;;;8.69;100.00;95655.03;5031816;28;102001;-63
2023/04/02 04:01:06;;;;;;;0.73;0.50;;;;;;;8.71;100.00;95660.03;5031314;28;105006;-63
2023/04/02 04:03:41;;;;;;;0.67;0.50;;;;;;;8.72;100.00;95664.31;5025153;28;105095;-63
2023/04/02 04:06:15;;;;;;;0.50;0.50;;;;;;;8.71;100.00;95670.66;5011557;28;101854;-63
2023/04/02 04:08:50;;;;;;;0.40;0.40;;;;;;;8.72;100.00;95666.97;5018267;28;104851;-63
2023/04/02 04:11:23;;;;;;;1.57;0.60;;;;;;;8.68;100.00;95671.97;5034291;28;104250;-63
2023/04/02 04:14:05;;;;;;;0.50;0.50;;;;;;;8.70;100.00;95674.34;5023712;28;104862;-63
2023/04/02 04:16:40;;;;;;;2.03;0.70;;;;;;;8.69;100.00;95678.06;5010692;28;103906;-63
2023/04/02 04:19:18;;;;;;;0.50;0.50;;;;;;;8.71;100.00;95675.94;5011488;28;101846;-63
2023/04/02 04:21:46;;;;;;;0.43;0.43;;;;;;;8.69;100.00;95678.88;5011488;28;103899;-63
2023/04/02 04:24:28;;;;;;;2.13;0.50;;;;;;;8.67;100.00;95680.97;5010964;28;106005;-63
2023/04/02 04:27:08;;;;;;;1.10;0.40;;;;;;;8.63;100.00;95690.50;5011499;28;101817;-63
2023/04/02 04:29:45;;;;;;;1.00;0.47;;;;;;;8.64;100.00;95689.44;5011252;28;105346;-63
2023/04/02 04:32:26;;;;;;;0.80;0.30;;;;;;;8.62;100.00;95698.69;5027751;28;105716;-63
2023/04/02 04:35:20;;;;;;;1.13;0.50;;;;;;;8.62;100.00;95698.69;5014647;28;101920;-63
2023/04/02 04:37:57;;;;;;;0.40;0.40;;;;;;;8.61;100.00;95703.19;4990773;28;105402;-63
2023/04/02 04:40:30;;;;;;;0.40;0.40;;;;;;;8.61;100.00;95705.06;5005506;28;101914;-63
2023/04/02 04:46:25;;;;;;;1.80;1.70;;;;;;;8.70;100.00;95708.81;5011901;28;102802;-63
2023/04/02 04:48:58;;;;;;;2.93;2.60;;;;;;;8.69;100.00;95715.19;5011979;28;101881;-63
2023/04/02 04:51:31;;;;;;;2.00;1.20;;;;;;;8.67;100.00;95718.06;5010995;28;103581;-63
2023/04/02 04:54:17;;;;;;;0.60;0.60;;;;;;;8.70;100.00;95716.78;5026413;28;102716;-63
2023/04/02 04:56:54;;;;;;;1.07;0.60;;;;;;;8.69;100.00;95725.78;5030913;28;101791;-63
2023/04/02 04:59:26;;;;;;;0.87;0.47;;;;;;;8.71;100.00;95726.31;5033583;28;104958;-63
2023/04/02 05:02:00;;;;;;;0.70;0.47;;;;;;;8.73;100.00;95732.19;5030656;28;101742;-63
2023/04/02 05:04:37;;;;;;;0.73;0.53;;;;;;;8.69;100.00;95731.88;5013431;28;102402;-63
2023/04/02 05:07:10;;;;;;;0.37;0.30;;;;;;;8.67;100.00;95733.19;5009763;28;105414;-63
2023/04/02 05:09:42;;;;;;;1.47;0.43;;;;;;;8.66;100.00;95739.53;4990635;28;101936;-63
2023/04/02 05:12:21;;;;;;;0.60;0.50;;;;;;;8.66;100.00;95737.69;5028623;28;104639;-63
2023/04/02 05:15:13;;;;;;;0.83;0.57;;;;;;;8.66;100.00;95739.53;5031115;28;103112;-63
2023/04/02 05:17:48;;;;;;;0.60;0.50;;;;;;;8.67;100.00;95743.78;4990734;28;101802;-63
2023/04/02 05:20:22;;;;;;;0.80;0.50;;;;;;;8.60;100.00;95748.50;4999539;28;103809;-63
2023/04/02 05:22:57;;;;;;;0.50;0.50;;;;;;;8.55;100.00;95746.59;5022965;28;101888;-63
2023/04/02 05:25:27;;;;;;;0.57;0.40;;;;;;;8.57;100.00;95749.78;5010464;28;105188;-63
2023/04/02 05:28:03;;;;;;;0.43;0.43;;;;;;;8.58;100.00;95747.97;5009680;28;105515;-63
2023/04/02 05:30:48;;;;;;;0.50;0.50;;;;;;;8.57;100.00;95759.63;5017242;28;101764;-63
2023/04/02 05:33:45;;;;;;;0.60;0.60;;;;;;;8.56;100.00;95763.31;5019512;28;104745;-63
2023/04/02 05:36:19;;;;;;;1.23;0.70;;;;;;;8.51;100.00;95771.22;5009496;28;105304;-63
2023/04/02 05:38:52;;;;;;;2.07;0.50;;;;;;;8.49;100.00;95775.97;5010223;28;101831;-63
2023/04/02 05:41:29;;;;;;;0.57;0.50;;;;;;;8.53;100.00;95779.72;5010267;28;104268;-63
2023/04/02 05:44:52;;;;;;;0.63;0.50;;;;;;;8.49;100.00;95778.59;5013186;28;105714;-63
2023/04/02 05:47:26;;;;;;;0.50;0.50;;;;;;;8.46;100.00;95787.06;5010209;28;105241;-63
2023/04/02 05:50:02;;;;;;;1.37;0.50;;;;;;;8.44;100.00;95791.81;5010540;28;105212;-63
2023/04/02 05:52:36;;;;;;;0.83;0.50;;;;;;;8.49;100.00;95789.19;5010811;28;101893;-63
2023/04/02 05:55:37;;;;;;;0.90;0.50;;;;;;;8.47;100.00;95783.38;5009805;28;103544;-63
2023/04/02 05:58:08;;;;;;;0.50;0.50;;;;;;;8.47;100.00;95796.63;4966655;28;104963;-63
2023/04/02 06:00:50;;;;;;;0.70;0.70;;;;;;;8.49;100.00;95797.16;5009856;28;101842;-63
2023/04/02 06:03:35;;;;;;;0.93;0.77;;;;;;;8.49;100.00;95797.97;5024381;28;105578;-63
2023/04/02 06:06:14;;;;;;;2.67;1.03;;;;;;;8.47;100.00;95796.63;5004893;28;104978;-63
2023/04/02 06:08:47;;;;;;;1.07;0.57;;;;;;;8.48;100.00;95803.50;5013025;28;101898;-63
2023/04/02 06:11:20;;;;;;;0.93;0.70;;;;;;;8.50;100.00;95804.06;5062853;27;105643;-63
2023/04/02 06:13:52;;;;;;;2.17;0.80;;;;;;;8.53;100.00;95809.66;5011393;28;102112;-63
2023/04/02 06:16:26;;;;;;;0.63;0.63;;;;;;;8.53;100.00;95816.81;5009726;28;105022;-63
2023/04/02 06:18:56;;;;;;;0.40;0.40;;;;;;;8.58;100.00;95814.22;5021077;28;105436;-64
2023/04/02 06:21:25;;;;;;;0.73;0.60;;;;;;;8.58;100.00;95814.22;5009315;28;102071;-64
2023/04/02 06:27:49;;;;;;;1.17;0.70;;;;;;;8.55;100.00;95820.81;5006949;28;102056;-63
2023/04/02 06:30:24;;;;;;;0.70;0.70;;;;;;;8.56;100.00;95824.28;5009406;28;101928;-63
2023/04/02 06:36:42;;;;;;;0.60;0.60;;;;;;;8.64;100.00;95834.41;5023292;28;101957;-63
2023/04/02 06:39:18;;;;;;;1.80;1.30;;;;;;;8.67;100.00;95844.50;5010097;28;105374;-64
2023/04/02 06:41:56;;;;;;;1.00;1.00;;;;;;;8.73;100.00;95843.50;5013191;28;105030;-64
2023/04/02 06:44:41;;;;;;;1.10;0.90;;;;;;;8.76;100.00;95845.63;5029446;28;101777;-64
2023/04/02 06:47:33;;;;;;;2.10;0.90;;;;;;;8.77;100.00;95845.38;5025303;28;101973;-63
2023/04/02 06:50:07;;;;;;;1.63;0.80;;;;;;;8.81;100.00;95853.63;5027825;27;102704;-63
2023/04/02 06:52:40;;;;;;;0.90;0.80;;;;;;;8.85;100.00;95854.75;5030712;27;101670;-64
2023/04/02 06:55:28;;;;;;;0.60;0.60;;;;;;;8.89;100.00;95853.19;5028739;28;104997;-64
2023/04/02 06:57:56;;;;;;;0.83;0.80;;;;;;;8.99;100.00;95861.25;5031924;28;105097;-64
2023/04/02 07:00:28;;;;;;;0.80;0.80;;;;;;;9.05;100.00;95861.00;5015361;28;105208;-64
2023/04/02 07:02:59;;;;;;;1.20;1.10;;;;;;;9.13;100.00;95857.91;5008429;28;105474;-64
2023/04/02 07:05:26;;;;;;;0.80;0.80;;;;;;;9.09;100.00;95872.72;5022050;28;101763;-64
2023/04/02 07:07:55;;;;;;;0.87;0.80;;;;;;;9.07;100.00;95872.19;5029185;28;103782;-64
2023/04/02 07:10:22;;;;;;;0.63;0.63;;;;;;;9.16;100.00;95875.94;5014009;28;105363;-64
2023/04/02 07:12:49;;;;;;;1.60;0.70;;;;;;;9.23;100.00;95870.44;5008862;28;102178;-64
2023/04/02 07:15:18;;;;;;;0.90;0.73;;;;;;;9.20;100.00;95877.03;5021885;28;104952;-63
2023/04/02 07:17:45;;;;;;;2.00;1.00;;;;;;;9.24;100.00;95875.50;5028315;28;105139;-63
2023/04/02 07:20:26;;;;;;;1.10;0.97;;;;;;;9.28;100.00;95881.09;5030364;28;101914;-63
2023/04/02 07:23:25;;;;;;;0.60;0.60;;;;;;;9.26;100.00;95891.16;5028332;28;104868;-64
2023/04/02 07:25:54;;;;;;;1.37;0.90;;;;;;;9.39;100.00;95886.19;5062557;27;101944;-64
2023/04/02 07:28:21;;;;;;;0.60;0.60;;;;;;;9.42;100.00;95884.88;5028859;28;103741;-63
2023/04/02 07:30:48;;;;;;;0.70;0.60;;;;;;;9.18;100.00;95894.25;5008384;28;103764;-64
2023/04/02 07:33:18;;;;;;;1.13;0.60;;;;;;;9.19;100.00;95894.03;5021220;28;101866;-64
2023/04/02 07:35:45;;;;;;;1.63;0.70;;;;;;;9.13;100.00;95892.38;5028561;28;105079;-64
2023/04/02 07:38:12;;;;;;;0.80;0.60;;;;;;;9.15;100.00;95898.22;5015693;28;105691;-64
2023/04/02 07:40:40;;;;;;;0.87;0.70;;;;;;;9.31;100.00;95897.28;5012674;28;102082;-64
2023/04/02 07:46:29;;;;;;;0.70;0.70;;;;;;;9.43;100.00;95894.47;5008771;28;102012;-64
2023/04/02 07:48:56;;;;;;;2.10;0.60;;;;;;;9.36;100.00;95899.16;5009419;28;103983;-64
2023/04/02 07:51:26;;;;;;;0.80;0.80;;;;;;;9.43;100.00;95907.75;5007809;28;105065;-64
2023/04/02 07:57:48;;;;;;;3.30;0.83;;;;;;;9.61;100.00;95915.28;5016695;28;101906;-64
2023/04/02 08:00:15;;;;;;;0.70;0.70;;;;;;;9.65;100.00;95917.16;5010553;27;105364;-64
2023/04/02 08:02:42;;;;;;;1.73;0.80;;;;;;;9.79;100.00;95918.34;5021464;28;101839;-64
2023/04/02 08:05:10;;;;;;;0.70;0.70;;;;;;;9.77;100.00;95917.00;5034413;28;105632;-64
2023/04/02 08:07:37;;;;;;;1.50;0.90;;;;;;;9.75;100.00;95921.75;5031572;28;101950;-64
2023/04/02 08:10:05;;;;;;;0.90;0.70;;;;;;;10.05;100.00;95921.97;5030918;28;104744;-64
2023/04/02 08:12:32;;;;;;;1.30;1.10;;;;;;;10.06;100.00;95923.56;5023705;28;102600;-64
2023/04/02 08:15:13;;;;;;;1.03;0.90;;;;;;;10.05;100.00;95924.63;5011613;28;101972;-64
2023/04/02 08:17:41;;;;;;;2.03;1.50;;;;;;;10.14;100.00;95921.19;5019522;28;103761;-64
2023/04/02 08:20:14;;;;;;;1.73;1.30;;;;;;;10.19;100.00;95931.06;5012813;28;105070;-64
2023/04/02 08:22:41;;;;;;;1.47;1.00;;;;;;;10.12;100.00;95930.47;5003261;28;102071;-65
2023/04/02 08:25:09;;;;;;;0.87;0.73;;;;;;;10.10;100.00;95933.41;5030307;28;102382;-64
2023/04/02 08:27:36;;;;;;;1.20;0.70;;;;;;;10.32;100.00;95931.41;5014105;28;103897;-63
2023/04/02 08:30:04;;;;;;;1.67;0.90;;;;;;;10.29;100.00;95939.88;5012346;28;103757;-65
2023/04/02 08:32:32;;;;;;;1.17;1.00;;;;;;;10.30;100.00;95940.69;5018231;28;103576;-65
2023/04/02 08:35:25;;;;;;;0.67;0.60;;;;;;;10.39;100.00;95941.78;5029426;28;101996;-65
2023/04/02 08:37:52;;;;;;;1.27;0.80;;;;;;;10.54;100.00;95941.84;5029184;28;105166;-65
2023/04/02 08:40:24;;;;;;;1.30;0.80;;;;;;;10.49;100.00;95945.28;5030044;28;104098;-65
2023/04/02 08:46:22;;;;;;;1.27;0.67;;;;;;;10.40;100.00;95954.81;5031308;28;105020;-65
2023/04/02 08:48:55;;;;;;;0.80;0.70;;;;;;;10.28;100.00;95953.41;5024064;28;105310;-68
2023/04/02 08:51:24;;;;;;;1.07;0.70;;;;;;;10.15;100.00;95956.56;5015522;28;101981;-63
2023/04/02 08:53:58;;;;;;;0.93;0.70;;;;;;;10.48;100.00;95953.50;5024586;28;104999;-63
2023/04/02 08:56:32;;;;;;;1.70;1.00;;;;;;;10.72;100.00;95959.97;5010924;28;101882;-62
2023/04/02 08:59:03;;;;;;;1.47;1.10;;;;;;;10.76;100.00;95959.22;5020359;28;105318;-63
2023/04/02 09:01:43;;;;;;;1.17;0.90;;;;;;;10.85;100.00;95957.63;5030346;28;104175;-62
2023/04/02 09:04:23;;;;;;;3.03;0.90;;;;;;;10.78;100.00;95964.25;5019443;28;101893;-62
2023/04/02 09:06:52;;;;;;;0.40;0.40;;;;;;;10.67;100.00;95963.44;5010452;28;105017;-63
2023/04/02 09:09:20;;;;;;;0.63;0.63;;;;;;;10.77;100.00;95978.59;5026232;28;102830;-63
2023/04/02 09:11:53;;;;;;;1.23;0.50;;;;;;;10.69;100.00;95979.13;5010103;28;102030;-63
2023/04/02 09:14:26;;;;;;;1.50;0.60;;;;;;;10.84;100.00;95971.22;5013488;28;104978;-63
2023/04/02 09:16:55;;;;;;;0.73;0.73;;;;;;;11.07;100.00;95974.16;5010411;28;101882;-63
2023/04/02 09:19:26;;;;;;;0.97;0.80;;;;;;;11.19;100.00;95979.25;5025734;28;105949;-63
2023/04/02 09:22:05;;;;;;;1.10;1.00;;;;;;;11.31;100.00;95985.13;4989770;28;105514;-63
2023/04/02 09:24:39;;;;;;;1.50;0.83;;;;;;;11.19;100.00;95988.06;4994634;28;101885;-63
2023/04/02 09:27:18;;;;;;;1.37;0.60;;;;;;;11.06;100.00;95983.22;5012214;28;102346;-64
2023/04/02 09:29:46;;;;;;;1.40;0.80;;;;;;;10.96;100.00;95977.09;5027758;28;105429;-64
2023/04/02 09:32:23;;;;;;;0.77;0.73;;;;;;;11.39;100.00;95988.06;5030450;28;101791;-64
2023/04/02 09:35:15;;;;;;;1.07;0.60;;;;;;;11.19;100.00;95987.25;5029930;28;104972;-64
2023/04/02 09:37:43;;;;;;;0.90;0.90;;;;;;;11.21;100.00;95995.75;5027007;28;101951;-63
2023/04/02 09:40:32;;;;;;;1.23;1.13;;;;;;;11.18;100.00;95993.63;5015610;28;105114;-63
2023/04/02 09:43:31;;;;;;;1.47;1.20;;;;;;;11.16;100.00;95990.41;5023552;28;105088;-63
2023/04/02 09:46:01;;;;;;;0.87;0.87;;;;;;;11.21;100.00;95987.75;5030038;28;101695;-64
2023/04/02 09:48:30;;;;;;;1.00;0.90;;;;;;;11.50;100.00;96002.19;5024460;28;105318;-64
2023/04/02 09:51:14;;;;;;;0.70;0.70;;;;;;;11.00;100.00;95997.56;5020952;28;105440;-64
2023/04/02 09:54:07;;;;;;;1.23;1.03;;;;;;;11.17;100.00;95984.84;5030093;28;102038;-64
2023/04/02 09:56:36;;;;;;;1.17;0.90;;;;;;;11.06;100.00;95993.06;5029530;28;105269;-64
2023/04/02 09:59:06;;;;;;;2.20;0.80;;;;;;;11.03;100.00;95998.91;5020778;27;102481;-64
2023/04/02 10:01:35;;;;;;;0.50;0.50;;;;;;;10.81;100.00;96001.78;5026492;28;105435;-64
2023/04/02 10:07:34;;;;;;;1.00;0.70;;;;;;;10.86;100.00;96011.63;5010586;28;102283;-64
2023/04/02 10:10:04;;;;;;;0.67;0.67;;;;;;;10.96;100.00;96009.78;5010743;28;105691;-64
2023/04/02 10:12:39;;;;;;;2.33;1.03;;;;;;;11.05;100.00;95996.78;5009047;28;105486;-64
2023/04/02 10:15:13;;;;;;;1.37;0.50;;;;;;;11.16;100.00;96014.38;5056715;27;101951;-64
2023/04/02 10:17:41;;;;;;;1.17;0.80;;;;;;;11.47;100.00;96016.03;5028610;28;105310;-64
2023/04/02 10:20:17;;;;;;;0.60;0.57;;;;;;;11.54;100.00;96005.91;5012114;28;104409;-63
2023/04/02 10:22:46;;;;;;;0.67;0.50;;;;;;;11.47;100.00;96005.38;5011989;28;101773;-74
2023/04/02 10:25:14;;;;;;;1.03;0.80;;;;;;;11.75;100.00;95996.91;5010088;28;105442;-63
2023/04/02 10:27:51;;;;;;;0.60;0.60;;;;;;;11.76;100.00;96009.16;5029313;28;102009;-63
2023/04/02 10:30:24;;;;;;;0.90;0.70;;;;;;;12.44;100.00;96011.22;5029087;28;105328;-64
2023/04/02 10:36:29;;;;;;;0.50;0.50;;;;;;;12.25;100.00;95991.50;5027022;28;103056;-64
2023/04/02 10:39:04;;;;;;;0.40;0.40;;;;;;;12.32;100.00;96000.81;5018897;28;103634;-64
2023/04/02 10:41:36;;;;;;;1.17;0.73;;;;;;;12.17;100.00;96005.41;5042573;27;105400;-63
2023/04/02 10:44:50;;;;;;;1.30;0.73;;;;;;;11.91;100.00;96003.81;5010421;28;101873;-64
2023/04/02 10:47:27;;;;;;;0.60;0.60;;;;;;;11.95;100.00;96007.56;5012005;28;105342;-64
2023/04/02 10:50:10;;;;;;;1.10;1.00;;;;;;;11.95;100.00;96012.88;5035102;27;102221;-63
2023/04/02 10:52:39;;;;;;;0.70;0.70;;;;;;;11.79;100.00;96016.63;5028673;28;105013;-64
2023/04/02 10:55:16;;;;;;;1.33;0.70;;;;;;;12.02;100.00;96008.88;5024352;28;105083;-64
2023/04/02 10:57:45;;;;;;;0.60;0.60;;;;;;;11.84;100.00;96019.28;5009082;28;102366;-64
2023/04/02 11:00:22;;;;;;;1.23;0.47;;;;;;;12.05;100.00;96018.22;5017233;28;105166;-64
2023/04/02 11:03:36;;;;;;;0.57;0.47;;;;;;;12.26;100.00;96019.78;5027535;28;105164;-63
2023/04/02 11:06:10;;;;;;;0.80;0.70;;;;;;;12.20;100.00;96026.16;5027361;28;101992;-64
2023/04/02 11:08:41;;;;;;;1.30;0.50;;;;;;;12.22;100.00;96024.84;5018191;28;103670;-64
2023/04/02 11:11:14;;;;;;;0.87;0.63;;;;;;;12.26;100.00;96020.56;5027455;28;105802;-64
2023/04/02 11:13:52;;;;;;;1.93;0.50;;;;;;;12.11;100.00;96027.81;5028775;28;105328;-64
2023/04/02 11:16:19;;;;;;;1.27;0.90;;;;;;;12.25;100.00;96020.84;5028025;28;105438;-64
2023/04/02 11:19:25;;;;;;;0.60;0.53;;;;;;;12.10;100.00;96023.53;5015345;28;101869;-64
2023/04/02 11:21:54;;;;;;;2.10;1.40;;;;;;;12.12;100.00;96026.72;4985422;28;104817;-64
2023/04/02 11:24:43;;;;;;;1.60;1.10;;;;;;;12.10;100.00;96027.00;5006330;28;105317;-64
2023/04/02 11:27:20;;;;;;;1.40;0.90;;;;;;;12.01;100.00;96023.28;5008870;28;101823;-64
2023/04/02 11:29:51;;;;;;;1.37;0.70;;;;;;;12.20;100.00;96021.66;5031238;27;104771;-62
2023/04/02 11:32:39;;;;;;;1.07;0.73;;;;;;;12.42;100.00;96024.81;5026974;28;103768;-63
2023/04/02 11:35:26;;;;;;;0.70;0.70;;;;;;;13.05;100.00;96018.75;5066952;27;101914;-63
2023/04/02 11:37:55;;;;;;;1.33;0.70;;;;;;;13.10;100.00;96029.41;5060260;27;105057;-63
2023/04/02 11:40:43;;;;;;;0.60;0.60;;;;;;;13.11;100.00;96028.34;5054534;27;101928;-63
2023/04/02 11:43:52;;;;;;;0.50;0.50;;;;;;;13.56;99.99;96027.25;5031835;28;104979;-63
2023/04/02 11:46:51;;;;;;;1.13;0.70;;;;;;;13.65;95.63;96021.06;5031439;28;105542;-62
2023/04/02 11:49:35;;;;;;;0.73;0.60;;;;;;;13.16;100.00;96025.66;5031388;28;102069;-63
2023/04/02 11:52:04;;;;;;;1.27;1.00;;;;;;;13.44;100.00;96024.94;5031494;28;105710;-62
2023/04/02 11:54:56;;;;;;;1.13;0.93;;;;;;;13.48;100.00;96033.19;5031014;28;105569;-63
2023/04/02 11:57:38;;;;;;;0.50;0.50;;;;;;;12.88;100.00;96041.47;5035050;28;101839;-62
2023/04/02 12:00:23;;;;;;;0.50;0.50;;;;;;;12.31;100.00;96054.44;5008087;28;106227;-62
2023/04/02 12:03:20;;;;;;;0.50;0.50;;;;;;;12.36;100.00;96049.06;5011842;28;101834;-63
2023/04/02 12:05:57;;;;;;;1.33;0.97;;;;;;;12.31;100.00;96038.44;5011379;28;105178;-63
2023/04/02 12:08:31;;;;;;;1.07;1.00;;;;;;;12.75;100.00;96036.75;5010820;28;105910;-62
2023/04/02 12:11:01;;;;;;;0.40;0.37;;;;;;;12.53;100.00;96037.03;5014956;28;102183;-62
2023/04/02 12:13:53;;;;;;;0.60;0.60;;;;;;;12.96;100.00;96040.94;5012589;28;105502;-63
2023/04/02 12:16:23;;;;;;;2.33;1.20;;;;;;;13.50;100.00;96039.88;5012569;28;103429;-62
2023/04/02 12:18:53;;;;;;;0.90;0.70;;;;;;;13.25;97.62;96029.31;5026304;28;101993;-62
2023/04/02 12:21:22;;;;;;;1.03;0.70;;;;;;;13.29;99.55;96030.38;5018876;28;105546;-61
2023/04/02 12:24:30;;;;;;;1.73;1.50;;;;;;;13.32;98.45;96035.16;5011674;28;101892;-61
2023/04/02 12:27:14;;;;;;;1.03;0.90;;;;;;;13.28;97.67;96044.81;5012347;28;104046;-61
2023/04/02 12:29:41;;;;;;;3.57;2.90;;;;;;;13.01;100.00;96038.25;5012410;28;105432;-61
2023/04/02 12:32:20;;;;;;;0.50;0.50;;;;;;;13.12;100.00;96042.47;5031495;28;102332;-61
2023/04/02 12:34:56;;;;;;;0.70;0.70;;;;;;;12.98;100.00;96042.25;5030615;27;102929;-61
2023/04/02 12:37:26;;;;;;;1.53;1.10;;;;;;;12.59;100.00;96056.53;4994865;28;102609;-61
2023/04/02 12:39:58;;;;;;;1.20;0.60;;;;;;;12.66;100.00;96049.03;5010876;28;102133;-61
2023/04/02 12:42:30;;;;;;;3.30;1.60;;;;;;;12.77;100.00;96048.72;5011289;28;104015;-61
2023/04/02 12:48:20;;;;;;;1.50;1.13;;;;;;;12.52;100.00;96055.97;5020858;28;103709;-61
2023/04/02 12:50:49;;;;;;;0.60;0.60;;;;;;;12.28;100.00;96054.97;5029871;27;101895;-61
2023/04/02 12:53:36;;;;;;;1.00;0.60;;;;;;;12.39;100.00;96059.22;5021177;28;101990;-61